sensor_id;sensor_type;location;lat;lon;timestamp;P1;durP1;ratioP1;P2;durP2;ratioP2
77324;SDS011;66387;53.440;10.390;2023-07-22T00:00:24;5.07;;;3.67;;
77324;SDS011;66387;53.440;10.390;2023-07-22T00:02:49;7.27;;;4.13;;
77324;SDS011;66387;53.440;10.390;2023-07-22T00:05:14;4.57;;;3.37;;
77324;SDS011;66387;53.440;10.390;2023-07-22T00:07:39;7.38;;;4.05;;
77324;SDS011;66387;53.440;10.390;2023-07-22T00:10:09;5.38;;;3.55;;
77324;SDS011;66387;53.440;10.390;2023-07-22T00:12:34;4.65;;;3.50;;
77324;SDS011;66387;53.440;10.390;2023-07-22T00:15:00;5.10;;;3.72;;
77324;SDS011;66387;53.440;10.390;2023-07-22T00:17:25;9.27;;;3.83;;
77324;SDS011;66387;53.440;10.390;2023-07-22T00:19:50;5.13;;;4.00;;
77324;SDS011;66387;53.440;10.390;2023-07-22T00:22:16;6.50;;;4.07;;
77324;SDS011;66387;53.440;10.390;2023-07-22T00:24:41;5.88;;;4.55;;
77324;SDS011;66387;53.440;10.390;2023-07-22T00:27:07;6.70;;;4.10;;
77324;SDS011;66387;53.440;10.390;2023-07-22T00:29:33;6.53;;;4.25;;
77324;SDS011;66387;53.440;10.390;2023-07-22T00:32:01;6.85;;;3.75;;
77324;SDS011;66387;53.440;10.390;2023-07-22T00:34:26;4.70;;;4.03;;
77324;SDS011;66387;53.440;10.390;2023-07-22T00:36:51;6.30;;;4.13;;
77324;SDS011;66387;53.440;10.390;2023-07-22T00:39:17;6.78;;;5.55;;
77324;SDS011;66387;53.440;10.390;2023-07-22T00:41:42;6.85;;;4.95;;
77324;SDS011;66387;53.440;10.390;2023-07-22T00:44:09;6.05;;;4.47;;
77324;SDS011;66387;53.440;10.390;2023-07-22T00:46:35;13.50;;;4.60;;
77324;SDS011;66387;53.440;10.390;2023-07-22T00:49:01;5.63;;;4.50;;
77324;SDS011;66387;53.440;10.390;2023-07-22T00:51:26;8.52;;;4.80;;
77324;SDS011;66387;53.440;10.390;2023-07-22T00:53:52;8.90;;;5.83;;
77324;SDS011;66387;53.440;10.390;2023-07-22T00:56:17;5.97;;;4.73;;
77324;SDS011;66387;53.440;10.390;2023-07-22T00:58:42;9.57;;;4.77;;
77324;SDS011;66387;53.440;10.390;2023-07-22T01:01:08;5.60;;;4.33;;
77324;SDS011;66387;53.440;10.390;2023-07-22T01:03:33;7.80;;;6.33;;
77324;SDS011;66387;53.440;10.390;2023-07-22T01:05:58;9.30;;;5.13;;
77324;SDS011;66387;53.440;10.390;2023-07-22T01:08:25;8.85;;;5.65;;
77324;SDS011;66387;53.440;10.390;2023-07-22T01:10:51;7.47;;;5.55;;
77324;SDS011;66387;53.440;10.390;2023-07-22T01:13:16;12.97;;;6.77;;
77324;SDS011;66387;53.440;10.390;2023-07-22T01:15:41;7.90;;;5.40;;
77324;SDS011;66387;53.440;10.390;2023-07-22T01:18:07;7.25;;;5.70;;
77324;SDS011;66387;53.440;10.390;2023-07-22T01:20:33;9.27;;;5.78;;
77324;SDS011;66387;53.440;10.390;2023-07-22T01:22:59;8.98;;;5.45;;
77324;SDS011;66387;53.440;10.390;2023-07-22T01:25:24;8.02;;;6.60;;
77324;SDS011;66387;53.440;10.390;2023-07-22T01:27:50;9.07;;;6.10;;
77324;SDS011;66387;53.440;10.390;2023-07-22T01:30:16;8.38;;;5.57;;
77324;SDS011;66387;53.440;10.390;2023-07-22T01:32:41;10.13;;;6.28;;
77324;SDS011;66387;53.440;10.390;2023-07-22T01:35:07;10.25;;;6.38;;
77324;SDS011;66387;53.440;10.390;2023-07-22T01:37:33;7.93;;;5.95;;
77324;SDS011;66387;53.440;10.390;2023-07-22T01:39:58;9.25;;;6.07;;
77324;SDS011;66387;53.440;10.390;2023-07-22T01:42:24;8.90;;;5.45;;
77324;SDS011;66387;53.440;10.390;2023-07-22T01:44:49;8.20;;;6.17;;
77324;SDS011;66387;53.440;10.390;2023-07-22T01:47:15;7.75;;;6.72;;
77324;SDS011;66387;53.440;10.390;2023-07-22T01:49:41;9.68;;;5.70;;
77324;SDS011;66387;53.440;10.390;2023-07-22T01:52:06;8.80;;;6.03;;
77324;SDS011;66387;53.440;10.390;2023-07-22T01:54:32;9.18;;;5.82;;
77324;SDS011;66387;53.440;10.390;2023-07-22T01:56:57;9.23;;;6.10;;
77324;SDS011;66387;53.440;10.390;2023-07-22T01:59:23;9.15;;;5.82;;
77324;SDS011;66387;53.440;10.390;2023-07-22T02:01:48;8.20;;;5.23;;
77324;SDS011;66387;53.440;10.390;2023-07-22T02:04:13;11.97;;;6.50;;
77324;SDS011;66387;53.440;10.390;2023-07-22T02:06:39;10.70;;;5.77;;
77324;SDS011;66387;53.440;10.390;2023-07-22T02:09:04;9.73;;;6.57;;
77324;SDS011;66387;53.440;10.390;2023-07-22T02:11:33;9.30;;;5.32;;
77324;SDS011;66387;53.440;10.390;2023-07-22T02:13:58;6.82;;;4.88;;
77324;SDS011;66387;53.440;10.390;2023-07-22T02:16:24;11.80;;;5.97;;
77324;SDS011;66387;53.440;10.390;2023-07-22T02:18:49;9.87;;;7.17;;
77324;SDS011;66387;53.440;10.390;2023-07-22T02:21:14;9.97;;;5.70;;
77324;SDS011;66387;53.440;10.390;2023-07-22T02:23:39;11.60;;;6.30;;
77324;SDS011;66387;53.440;10.390;2023-07-22T02:26:05;10.47;;;5.77;;
77324;SDS011;66387;53.440;10.390;2023-07-22T02:28:30;10.13;;;5.23;;
77324;SDS011;66387;53.440;10.390;2023-07-22T02:30:55;10.93;;;6.20;;
77324;SDS011;66387;53.440;10.390;2023-07-22T02:33:27;11.48;;;5.93;;
77324;SDS011;66387;53.440;10.390;2023-07-22T02:35:52;8.27;;;6.50;;
77324;SDS011;66387;53.440;10.390;2023-07-22T02:38:17;10.60;;;6.53;;
77324;SDS011;66387;53.440;10.390;2023-07-22T02:40:43;11.30;;;6.73;;
77324;SDS011;66387;53.440;10.390;2023-07-22T02:43:08;9.87;;;6.40;;
77324;SDS011;66387;53.440;10.390;2023-07-22T02:45:33;11.23;;;6.40;;
77324;SDS011;66387;53.440;10.390;2023-07-22T02:47:59;10.10;;;6.47;;
77324;SDS011;66387;53.440;10.390;2023-07-22T02:50:24;13.57;;;6.57;;
77324;SDS011;66387;53.440;10.390;2023-07-22T02:52:50;9.45;;;6.80;;
77324;SDS011;66387;53.440;10.390;2023-07-22T02:55:16;11.88;;;8.15;;
77324;SDS011;66387;53.440;10.390;2023-07-22T02:57:45;9.25;;;6.82;;
77324;SDS011;66387;53.440;10.390;2023-07-22T03:00:12;12.18;;;6.22;;
77324;SDS011;66387;53.440;10.390;2023-07-22T03:02:38;10.30;;;6.82;;
77324;SDS011;66387;53.440;10.390;2023-07-22T03:05:05;11.50;;;6.55;;
77324;SDS011;66387;53.440;10.390;2023-07-22T03:07:39;12.32;;;8.45;;
77324;SDS011;66387;53.440;10.390;2023-07-22T03:10:05;11.15;;;7.10;;
77324;SDS011;66387;53.440;10.390;2023-07-22T03:12:31;11.75;;;7.78;;
77324;SDS011;66387;53.440;10.390;2023-07-22T03:14:57;13.50;;;7.60;;
77324;SDS011;66387;53.440;10.390;2023-07-22T03:17:22;10.23;;;6.87;;
77324;SDS011;66387;53.440;10.390;2023-07-22T03:19:47;10.90;;;6.90;;
77324;SDS011;66387;53.440;10.390;2023-07-22T03:22:14;12.52;;;7.55;;
77324;SDS011;66387;53.440;10.390;2023-07-22T03:27:06;12.37;;;7.63;;
77324;SDS011;66387;53.440;10.390;2023-07-22T03:29:31;12.18;;;7.00;;
77324;SDS011;66387;53.440;10.390;2023-07-22T03:31:57;11.45;;;7.63;;
77324;SDS011;66387;53.440;10.390;2023-07-22T03:34:22;9.40;;;6.97;;
77324;SDS011;66387;53.440;10.390;2023-07-22T03:36:48;13.43;;;7.28;;
77324;SDS011;66387;53.440;10.390;2023-07-22T03:39:13;12.13;;;7.90;;
77324;SDS011;66387;53.440;10.390;2023-07-22T03:41:39;10.10;;;7.05;;
77324;SDS011;66387;53.440;10.390;2023-07-22T03:44:04;11.67;;;7.07;;
77324;SDS011;66387;53.440;10.390;2023-07-22T03:46:29;16.73;;;7.93;;
77324;SDS011;66387;53.440;10.390;2023-07-22T03:48:55;11.50;;;7.00;;
77324;SDS011;66387;53.440;10.390;2023-07-22T03:51:20;13.23;;;9.67;;
77324;SDS011;66387;53.440;10.390;2023-07-22T03:53:45;12.87;;;7.63;;
77324;SDS011;66387;53.440;10.390;2023-07-22T03:56:10;12.73;;;7.27;;
77324;SDS011;66387;53.440;10.390;2023-07-22T03:58:36;12.47;;;7.37;;
77324;SDS011;66387;53.440;10.390;2023-07-22T04:01:01;14.13;;;8.50;;
77324;SDS011;66387;53.440;10.390;2023-07-22T04:03:26;13.43;;;8.30;;
77324;SDS011;66387;53.440;10.390;2023-07-22T04:05:55;13.07;;;6.72;;
77324;SDS011;66387;53.440;10.390;2023-07-22T04:08:21;11.32;;;8.05;;
77324;SDS011;66387;53.440;10.390;2023-07-22T04:10:53;10.40;;;7.15;;
77324;SDS011;66387;53.440;10.390;2023-07-22T04:13:20;11.93;;;7.15;;
77324;SDS011;66387;53.440;10.390;2023-07-22T04:15:46;13.43;;;8.65;;
77324;SDS011;66387;53.440;10.390;2023-07-22T04:18:12;12.20;;;7.50;;
77324;SDS011;66387;53.440;10.390;2023-07-22T04:20:37;13.13;;;7.25;;
77324;SDS011;66387;53.440;10.390;2023-07-22T04:23:02;10.80;;;7.97;;
77324;SDS011;66387;53.440;10.390;2023-07-22T04:25:28;10.80;;;6.93;;
77324;SDS011;66387;53.440;10.390;2023-07-22T04:27:53;12.95;;;6.88;;
77324;SDS011;66387;53.440;10.390;2023-07-22T04:30:18;11.97;;;7.33;;
77324;SDS011;66387;53.440;10.390;2023-07-22T04:32:48;13.68;;;7.38;;
77324;SDS011;66387;53.440;10.390;2023-07-22T04:35:14;13.10;;;7.05;;
77324;SDS011;66387;53.440;10.390;2023-07-22T04:37:42;15.63;;;7.70;;
77324;SDS011;66387;53.440;10.390;2023-07-22T04:40:11;10.90;;;6.35;;
77324;SDS011;66387;53.440;10.390;2023-07-22T04:42:41;13.45;;;6.55;;
77324;SDS011;66387;53.440;10.390;2023-07-22T04:45:07;12.30;;;7.88;;
77324;SDS011;66387;53.440;10.390;2023-07-22T04:47:34;12.23;;;7.03;;
77324;SDS011;66387;53.440;10.390;2023-07-22T04:49:59;13.37;;;7.47;;
77324;SDS011;66387;53.440;10.390;2023-07-22T04:52:24;15.57;;;8.43;;
77324;SDS011;66387;53.440;10.390;2023-07-22T04:54:49;11.60;;;7.13;;
77324;SDS011;66387;53.440;10.390;2023-07-22T04:57:15;10.47;;;6.97;;
77324;SDS011;66387;53.440;10.390;2023-07-22T04:59:42;13.32;;;7.95;;
77324;SDS011;66387;53.440;10.390;2023-07-22T05:02:07;13.80;;;8.00;;
77324;SDS011;66387;53.440;10.390;2023-07-22T05:04:32;11.57;;;7.80;;
77324;SDS011;66387;53.440;10.390;2023-07-22T05:06:57;10.83;;;6.20;;
77324;SDS011;66387;53.440;10.390;2023-07-22T05:09:23;10.93;;;6.40;;
77324;SDS011;66387;53.440;10.390;2023-07-22T05:11:48;11.33;;;6.97;;
77324;SDS011;66387;53.440;10.390;2023-07-22T05:14:13;13.57;;;8.40;;
77324;SDS011;66387;53.440;10.390;2023-07-22T05:16:38;12.90;;;7.53;;
77324;SDS011;66387;53.440;10.390;2023-07-22T05:19:04;12.10;;;7.57;;
77324;SDS011;66387;53.440;10.390;2023-07-22T05:21:30;11.60;;;6.75;;
77324;SDS011;66387;53.440;10.390;2023-07-22T05:23:55;13.90;;;7.03;;
77324;SDS011;66387;53.440;10.390;2023-07-22T05:26:20;11.33;;;7.80;;
77324;SDS011;66387;53.440;10.390;2023-07-22T05:28:46;10.97;;;7.30;;
77324;SDS011;66387;53.440;10.390;2023-07-22T05:31:11;13.67;;;8.27;;
77324;SDS011;66387;53.440;10.390;2023-07-22T05:33:37;10.48;;;7.35;;
77324;SDS011;66387;53.440;10.390;2023-07-22T05:36:02;13.63;;;7.40;;
77324;SDS011;66387;53.440;10.390;2023-07-22T05:38:27;10.45;;;6.53;;
77324;SDS011;66387;53.440;10.390;2023-07-22T05:40:53;9.13;;;6.60;;
77324;SDS011;66387;53.440;10.390;2023-07-22T05:43:18;10.10;;;7.72;;
77324;SDS011;66387;53.440;10.390;2023-07-22T05:45:43;15.00;;;7.80;;
77324;SDS011;66387;53.440;10.390;2023-07-22T05:48:09;10.87;;;6.40;;
77324;SDS011;66387;53.440;10.390;2023-07-22T05:50:34;11.03;;;6.80;;
77324;SDS011;66387;53.440;10.390;2023-07-22T05:52:59;12.97;;;7.63;;
77324;SDS011;66387;53.440;10.390;2023-07-22T05:55:24;10.15;;;6.32;;
77324;SDS011;66387;53.440;10.390;2023-07-22T05:57:51;9.15;;;7.63;;
77324;SDS011;66387;53.440;10.390;2023-07-22T06:00:16;12.57;;;7.20;;
77324;SDS011;66387;53.440;10.390;2023-07-22T06:02:42;7.43;;;6.32;;
77324;SDS011;66387;53.440;10.390;2023-07-22T06:05:07;12.20;;;6.18;;
77324;SDS011;66387;53.440;10.390;2023-07-22T06:07:33;10.25;;;6.65;;
77324;SDS011;66387;53.440;10.390;2023-07-22T06:09:58;13.07;;;6.97;;
77324;SDS011;66387;53.440;10.390;2023-07-22T06:12:23;9.23;;;6.00;;
77324;SDS011;66387;53.440;10.390;2023-07-22T06:14:49;10.27;;;7.10;;
77324;SDS011;66387;53.440;10.390;2023-07-22T06:17:15;11.30;;;6.40;;
77324;SDS011;66387;53.440;10.390;2023-07-22T06:19:40;11.77;;;6.60;;
77324;SDS011;66387;53.440;10.390;2023-07-22T06:22:05;11.03;;;6.70;;
77324;SDS011;66387;53.440;10.390;2023-07-22T06:24:30;9.63;;;6.73;;
77324;SDS011;66387;53.440;10.390;2023-07-22T06:26:56;9.70;;;6.47;;
77324;SDS011;66387;53.440;10.390;2023-07-22T06:29:21;7.33;;;5.27;;
77324;SDS011;66387;53.440;10.390;2023-07-22T06:31:46;12.63;;;6.27;;
77324;SDS011;66387;53.440;10.390;2023-07-22T06:34:11;10.50;;;6.43;;
77324;SDS011;66387;53.440;10.390;2023-07-22T06:36:37;9.70;;;6.27;;
77324;SDS011;66387;53.440;10.390;2023-07-22T06:39:02;7.87;;;7.07;;
77324;SDS011;66387;53.440;10.390;2023-07-22T06:41:27;10.05;;;5.88;;
77324;SDS011;66387;53.440;10.390;2023-07-22T06:43:53;7.97;;;5.77;;
77324;SDS011;66387;53.440;10.390;2023-07-22T06:46:18;9.97;;;5.87;;
77324;SDS011;66387;53.440;10.390;2023-07-22T06:48:43;6.53;;;4.97;;
77324;SDS011;66387;53.440;10.390;2023-07-22T06:51:08;6.50;;;4.77;;
77324;SDS011;66387;53.440;10.390;2023-07-22T06:53:34;9.63;;;5.83;;
77324;SDS011;66387;53.440;10.390;2023-07-22T06:55:59;10.70;;;4.93;;
77324;SDS011;66387;53.440;10.390;2023-07-22T06:58:24;7.80;;;5.40;;
77324;SDS011;66387;53.440;10.390;2023-07-22T07:00:52;8.18;;;4.65;;
77324;SDS011;66387;53.440;10.390;2023-07-22T07:03:21;13.23;;;5.90;;
77324;SDS011;66387;53.440;10.390;2023-07-22T07:05:53;6.28;;;4.45;;
77324;SDS011;66387;53.440;10.390;2023-07-22T07:08:20;5.60;;;4.18;;
77324;SDS011;66387;53.440;10.390;2023-07-22T07:10:45;7.20;;;4.05;;
77324;SDS011;66387;53.440;10.390;2023-07-22T07:13:10;5.97;;;4.03;;
77324;SDS011;66387;53.440;10.390;2023-07-22T07:15:36;6.67;;;4.50;;
77324;SDS011;66387;53.440;10.390;2023-07-22T07:18:01;6.20;;;3.97;;
77324;SDS011;66387;53.440;10.390;2023-07-22T07:20:26;6.25;;;3.80;;
77324;SDS011;66387;53.440;10.390;2023-07-22T07:22:51;5.50;;;2.80;;
77324;SDS011;66387;53.440;10.390;2023-07-22T07:25:17;6.50;;;4.23;;
77324;SDS011;66387;53.440;10.390;2023-07-22T07:27:42;5.73;;;4.13;;
77324;SDS011;66387;53.440;10.390;2023-07-22T07:30:07;6.10;;;5.17;;
77324;SDS011;66387;53.440;10.390;2023-07-22T07:32:33;10.20;;;5.20;;
77324;SDS011;66387;53.440;10.390;2023-07-22T07:34:59;6.70;;;5.03;;
77324;SDS011;66387;53.440;10.390;2023-07-22T07:37:24;6.13;;;4.60;;
77324;SDS011;66387;53.440;10.390;2023-07-22T07:39:49;5.78;;;4.65;;
77324;SDS011;66387;53.440;10.390;2023-07-22T07:42:15;7.30;;;4.50;;
77324;SDS011;66387;53.440;10.390;2023-07-22T07:44:40;6.27;;;3.70;;
77324;SDS011;66387;53.440;10.390;2023-07-22T07:47:05;6.07;;;4.63;;
77324;SDS011;66387;53.440;10.390;2023-07-22T07:49:30;5.83;;;3.60;;
77324;SDS011;66387;53.440;10.390;2023-07-22T07:51:56;5.90;;;3.87;;
77324;SDS011;66387;53.440;10.390;2023-07-22T07:54:21;6.23;;;3.53;;
77324;SDS011;66387;53.440;10.390;2023-07-22T07:56:46;6.77;;;3.80;;
77324;SDS011;66387;53.440;10.390;2023-07-22T07:59:11;5.70;;;3.67;;
77324;SDS011;66387;53.440;10.390;2023-07-22T08:01:37;5.47;;;3.30;;
77324;SDS011;66387;53.440;10.390;2023-07-22T08:04:06;7.20;;;3.72;;
77324;SDS011;66387;53.440;10.390;2023-07-22T08:06:31;3.75;;;2.78;;
77324;SDS011;66387;53.440;10.390;2023-07-22T08:08:58;4.57;;;3.30;;
77324;SDS011;66387;53.440;10.390;2023-07-22T08:11:23;6.25;;;2.90;;
77324;SDS011;66387;53.440;10.390;2023-07-22T08:13:49;6.30;;;2.63;;
77324;SDS011;66387;53.440;10.390;2023-07-22T08:16:16;4.38;;;2.83;;
77324;SDS011;66387;53.440;10.390;2023-07-22T08:18:41;4.30;;;2.63;;
77324;SDS011;66387;53.440;10.390;2023-07-22T08:21:07;3.80;;;1.85;;
77324;SDS011;66387;53.440;10.390;2023-07-22T08:23:34;4.50;;;2.08;;
77324;SDS011;66387;53.440;10.390;2023-07-22T08:25:59;3.88;;;2.15;;
77324;SDS011;66387;53.440;10.390;2023-07-22T08:28:25;4.37;;;2.20;;
77324;SDS011;66387;53.440;10.390;2023-07-22T08:30:53;4.60;;;2.72;;
77324;SDS011;66387;53.440;10.390;2023-07-22T08:33:19;3.60;;;1.75;;
77324;SDS011;66387;53.440;10.390;2023-07-22T08:35:44;2.70;;;2.00;;
77324;SDS011;66387;53.440;10.390;2023-07-22T08:38:12;4.63;;;1.92;;
77324;SDS011;66387;53.440;10.390;2023-07-22T08:40:38;3.13;;;2.10;;
77324;SDS011;66387;53.440;10.390;2023-07-22T08:43:05;3.35;;;2.00;;
77324;SDS011;66387;53.440;10.390;2023-07-22T08:45:32;4.13;;;2.35;;
77324;SDS011;66387;53.440;10.390;2023-07-22T08:48:05;2.85;;;1.70;;
77324;SDS011;66387;53.440;10.390;2023-07-22T08:50:34;2.58;;;1.80;;
77324;SDS011;66387;53.440;10.390;2023-07-22T08:53:08;4.35;;;2.10;;
77324;SDS011;66387;53.440;10.390;2023-07-22T08:55:35;3.97;;;1.88;;
77324;SDS011;66387;53.440;10.390;2023-07-22T08:58:01;3.05;;;2.03;;
77324;SDS011;66387;53.440;10.390;2023-07-22T09:00:27;2.53;;;1.63;;
77324;SDS011;66387;53.440;10.390;2023-07-22T09:02:53;5.38;;;2.50;;
77324;SDS011;66387;53.440;10.390;2023-07-22T09:05:19;2.80;;;1.45;;
77324;SDS011;66387;53.440;10.390;2023-07-22T09:07:44;2.77;;;1.73;;
77324;SDS011;66387;53.440;10.390;2023-07-22T09:10:13;4.20;;;1.80;;
77324;SDS011;66387;53.440;10.390;2023-07-22T09:12:40;3.22;;;1.90;;
77324;SDS011;66387;53.440;10.390;2023-07-22T09:15:09;2.63;;;1.60;;
77324;SDS011;66387;53.440;10.390;2023-07-22T09:17:37;3.13;;;1.70;;
77324;SDS011;66387;53.440;10.390;2023-07-22T09:20:06;3.08;;;1.33;;
77324;SDS011;66387;53.440;10.390;2023-07-22T09:22:33;4.25;;;1.83;;
77324;SDS011;66387;53.440;10.390;2023-07-22T09:25:17;2.22;;;1.80;;
77324;SDS011;66387;53.440;10.390;2023-07-22T09:27:51;1.80;;;1.50;;
77324;SDS011;66387;53.440;10.390;2023-07-22T09:32:47;2.60;;;1.65;;
77324;SDS011;66387;53.440;10.390;2023-07-22T09:35:13;3.75;;;1.60;;
77324;SDS011;66387;53.440;10.390;2023-07-22T09:37:38;2.77;;;1.40;;
77324;SDS011;66387;53.440;10.390;2023-07-22T09:40:13;2.05;;;1.38;;
77324;SDS011;66387;53.440;10.390;2023-07-22T09:42:46;2.95;;;1.50;;
77324;SDS011;66387;53.440;10.390;2023-07-22T09:45:13;3.92;;;1.83;;
77324;SDS011;66387;53.440;10.390;2023-07-22T09:47:41;3.20;;;1.50;;
77324;SDS011;66387;53.440;10.390;2023-07-22T09:50:13;1.88;;;1.40;;
77324;SDS011;66387;53.440;10.390;2023-07-22T09:52:46;2.63;;;2.03;;
77324;SDS011;66387;53.440;10.390;2023-07-22T09:55:14;2.53;;;1.70;;
77324;SDS011;66387;53.440;10.390;2023-07-22T09:57:43;2.10;;;1.63;;
77324;SDS011;66387;53.440;10.390;2023-07-22T10:00:11;1.88;;;1.38;;
77324;SDS011;66387;53.440;10.390;2023-07-22T10:02:37;3.83;;;1.85;;
77324;SDS011;66387;53.440;10.390;2023-07-22T10:05:05;5.50;;;2.03;;
77324;SDS011;66387;53.440;10.390;2023-07-22T10:07:32;2.75;;;1.48;;
77324;SDS011;66387;53.440;10.390;2023-07-22T10:09:58;2.65;;;1.42;;
77324;SDS011;66387;53.440;10.390;2023-07-22T10:12:24;2.33;;;1.88;;
77324;SDS011;66387;53.440;10.390;2023-07-22T10:14:52;5.63;;;1.83;;
77324;SDS011;66387;53.440;10.390;2023-07-22T10:17:18;2.05;;;1.40;;
77324;SDS011;66387;53.440;10.390;2023-07-22T10:19:44;3.42;;;1.60;;
77324;SDS011;66387;53.440;10.390;2023-07-22T10:22:10;3.85;;;1.52;;
77324;SDS011;66387;53.440;10.390;2023-07-22T10:24:36;3.05;;;1.50;;
77324;SDS011;66387;53.440;10.390;2023-07-22T10:27:02;2.38;;;1.73;;
77324;SDS011;66387;53.440;10.390;2023-07-22T10:29:29;1.90;;;1.17;;
77324;SDS011;66387;53.440;10.390;2023-07-22T10:31:56;2.92;;;1.60;;
77324;SDS011;66387;53.440;10.390;2023-07-22T10:34:21;1.67;;;1.20;;
77324;SDS011;66387;53.440;10.390;2023-07-22T10:36:48;3.35;;;1.75;;
77324;SDS011;66387;53.440;10.390;2023-07-22T10:39:24;3.05;;;2.20;;
77324;SDS011;66387;53.440;10.390;2023-07-22T10:42:02;2.08;;;1.40;;
77324;SDS011;66387;53.440;10.390;2023-07-22T10:44:30;2.95;;;1.35;;
77324;SDS011;66387;53.440;10.390;2023-07-22T10:46:57;2.33;;;1.42;;
77324;SDS011;66387;53.440;10.390;2023-07-22T10:49:23;1.98;;;1.25;;
77324;SDS011;66387;53.440;10.390;2023-07-22T10:51:49;2.30;;;1.30;;
77324;SDS011;66387;53.440;10.390;2023-07-22T10:54:30;1.42;;;1.00;;
77324;SDS011;66387;53.440;10.390;2023-07-22T10:57:22;1.83;;;1.25;;
77324;SDS011;66387;53.440;10.390;2023-07-22T10:59:50;2.20;;;1.20;;
77324;SDS011;66387;53.440;10.390;2023-07-22T11:02:25;2.22;;;1.50;;
77324;SDS011;66387;53.440;10.390;2023-07-22T11:04:51;1.58;;;1.20;;
77324;SDS011;66387;53.440;10.390;2023-07-22T11:07:29;2.80;;;1.60;;
77324;SDS011;66387;53.440;10.390;2023-07-22T11:09:55;3.65;;;1.98;;
77324;SDS011;66387;53.440;10.390;2023-07-22T11:12:21;3.17;;;2.03;;
77324;SDS011;66387;53.440;10.390;2023-07-22T11:14:50;2.78;;;1.70;;
77324;SDS011;66387;53.440;10.390;2023-07-22T11:17:17;2.88;;;1.70;;
77324;SDS011;66387;53.440;10.390;2023-07-22T11:19:52;5.32;;;2.25;;
77324;SDS011;66387;53.440;10.390;2023-07-22T11:22:17;2.10;;;1.45;;
77324;SDS011;66387;53.440;10.390;2023-07-22T11:24:42;2.83;;;1.83;;
77324;SDS011;66387;53.440;10.390;2023-07-22T11:27:08;2.15;;;1.60;;
77324;SDS011;66387;53.440;10.390;2023-07-22T11:29:34;3.60;;;2.17;;
77324;SDS011;66387;53.440;10.390;2023-07-22T11:32:00;2.65;;;1.80;;
77324;SDS011;66387;53.440;10.390;2023-07-22T11:34:25;3.33;;;1.90;;
77324;SDS011;66387;53.440;10.390;2023-07-22T11:36:51;3.97;;;1.95;;
77324;SDS011;66387;53.440;10.390;2023-07-22T11:39:18;2.92;;;1.88;;
77324;SDS011;66387;53.440;10.390;2023-07-22T11:41:45;2.92;;;2.22;;
77324;SDS011;66387;53.440;10.390;2023-07-22T11:46:49;3.88;;;1.88;;
77324;SDS011;66387;53.440;10.390;2023-07-22T11:51:50;4.70;;;2.83;;
77324;SDS011;66387;53.440;10.390;2023-07-22T11:54:16;3.45;;;2.13;;
77324;SDS011;66387;53.440;10.390;2023-07-22T11:56:42;3.22;;;2.38;;
77324;SDS011;66387;53.440;10.390;2023-07-22T11:59:07;3.10;;;2.20;;
77324;SDS011;66387;53.440;10.390;2023-07-22T12:01:33;4.95;;;2.65;;
77324;SDS011;66387;53.440;10.390;2023-07-22T12:03:58;3.55;;;2.65;;
77324;SDS011;66387;53.440;10.390;2023-07-22T12:06:27;3.40;;;2.40;;
77324;SDS011;66387;53.440;10.390;2023-07-22T12:08:53;4.07;;;2.88;;
77324;SDS011;66387;53.440;10.390;2023-07-22T12:11:27;4.60;;;2.97;;
77324;SDS011;66387;53.440;10.390;2023-07-22T12:16:36;4.25;;;2.70;;
77324;SDS011;66387;53.440;10.390;2023-07-22T12:19:03;6.05;;;2.50;;
77324;SDS011;66387;53.440;10.390;2023-07-22T12:21:29;5.03;;;2.70;;
77324;SDS011;66387;53.440;10.390;2023-07-22T12:23:55;3.85;;;2.65;;
77324;SDS011;66387;53.440;10.390;2023-07-22T12:26:23;3.10;;;2.27;;
77324;SDS011;66387;53.440;10.390;2023-07-22T12:28:48;4.55;;;2.88;;
77324;SDS011;66387;53.440;10.390;2023-07-22T12:31:13;4.23;;;3.57;;
77324;SDS011;66387;53.440;10.390;2023-07-22T12:33:39;4.13;;;2.90;;
77324;SDS011;66387;53.440;10.390;2023-07-22T12:36:04;6.43;;;2.93;;
77324;SDS011;66387;53.440;10.390;2023-07-22T12:38:30;3.53;;;2.92;;
77324;SDS011;66387;53.440;10.390;2023-07-22T12:40:59;4.35;;;2.78;;
77324;SDS011;66387;53.440;10.390;2023-07-22T12:43:25;4.57;;;3.05;;
77324;SDS011;66387;53.440;10.390;2023-07-22T12:45:50;4.20;;;3.13;;
77324;SDS011;66387;53.440;10.390;2023-07-22T12:48:22;5.10;;;3.17;;
77324;SDS011;66387;53.440;10.390;2023-07-22T12:50:50;5.05;;;3.00;;
77324;SDS011;66387;53.440;10.390;2023-07-22T12:53:16;7.00;;;2.80;;
77324;SDS011;66387;53.440;10.390;2023-07-22T12:55:41;3.95;;;2.50;;
77324;SDS011;66387;53.440;10.390;2023-07-22T12:58:06;5.65;;;3.15;;
77324;SDS011;66387;53.440;10.390;2023-07-22T13:00:31;4.13;;;3.43;;
77324;SDS011;66387;53.440;10.390;2023-07-22T13:02:57;5.30;;;3.22;;
77324;SDS011;66387;53.440;10.390;2023-07-22T13:05:22;5.43;;;3.53;;
77324;SDS011;66387;53.440;10.390;2023-07-22T13:07:48;6.05;;;4.03;;
77324;SDS011;66387;53.440;10.390;2023-07-22T13:10:13;4.63;;;3.40;;
77324;SDS011;66387;53.440;10.390;2023-07-22T13:12:41;5.40;;;4.30;;
77324;SDS011;66387;53.440;10.390;2023-07-22T13:15:07;5.10;;;3.17;;
77324;SDS011;66387;53.440;10.390;2023-07-22T13:17:33;5.25;;;3.78;;
77324;SDS011;66387;53.440;10.390;2023-07-22T13:19:58;4.87;;;3.63;;
77324;SDS011;66387;53.440;10.390;2023-07-22T13:22:23;5.17;;;3.90;;
77324;SDS011;66387;53.440;10.390;2023-07-22T13:24:48;5.70;;;3.40;;
77324;SDS011;66387;53.440;10.390;2023-07-22T13:27:14;5.30;;;3.53;;
77324;SDS011;66387;53.440;10.390;2023-07-22T13:29:39;4.33;;;3.13;;
77324;SDS011;66387;53.440;10.390;2023-07-22T13:32:04;5.57;;;4.87;;
77324;SDS011;66387;53.440;10.390;2023-07-22T13:34:31;4.97;;;3.72;;
77324;SDS011;66387;53.440;10.390;2023-07-22T13:36:56;5.63;;;3.28;;
77324;SDS011;66387;53.440;10.390;2023-07-22T13:39:21;6.23;;;3.53;;
77324;SDS011;66387;53.440;10.390;2023-07-22T13:41:47;4.80;;;3.50;;
77324;SDS011;66387;53.440;10.390;2023-07-22T13:44:12;6.10;;;4.38;;
77324;SDS011;66387;53.440;10.390;2023-07-22T13:46:37;5.95;;;3.97;;
77324;SDS011;66387;53.440;10.390;2023-07-22T13:49:03;7.27;;;4.40;;
77324;SDS011;66387;53.440;10.390;2023-07-22T13:51:28;5.87;;;3.47;;
77324;SDS011;66387;53.440;10.390;2023-07-22T13:53:53;6.73;;;3.57;;
77324;SDS011;66387;53.440;10.390;2023-07-22T13:56:19;5.68;;;4.20;;
77324;SDS011;66387;53.440;10.390;2023-07-22T13:58:45;4.60;;;3.17;;
77324;SDS011;66387;53.440;10.390;2023-07-22T14:01:10;6.63;;;3.43;;
77324;SDS011;66387;53.440;10.390;2023-07-22T14:03:35;5.97;;;4.33;;
77324;SDS011;66387;53.440;10.390;2023-07-22T14:06:00;6.07;;;3.37;;
77324;SDS011;66387;53.440;10.390;2023-07-22T14:08:26;5.40;;;3.77;;
77324;SDS011;66387;53.440;10.390;2023-07-22T14:10:51;3.77;;;3.07;;
77324;SDS011;66387;53.440;10.390;2023-07-22T14:13:16;4.97;;;3.47;;
77324;SDS011;66387;53.440;10.390;2023-07-22T14:15:42;5.13;;;3.80;;
77324;SDS011;66387;53.440;10.390;2023-07-22T14:18:07;5.63;;;3.40;;
77324;SDS011;66387;53.440;10.390;2023-07-22T14:20:32;5.85;;;3.97;;
77324;SDS011;66387;53.440;10.390;2023-07-22T14:22:58;6.57;;;4.03;;
77324;SDS011;66387;53.440;10.390;2023-07-22T14:25:23;5.43;;;3.97;;
77324;SDS011;66387;53.440;10.390;2023-07-22T14:27:48;6.40;;;3.70;;
77324;SDS011;66387;53.440;10.390;2023-07-22T14:30:14;4.23;;;3.30;;
77324;SDS011;66387;53.440;10.390;2023-07-22T14:32:39;5.88;;;3.90;;
77324;SDS011;66387;53.440;10.390;2023-07-22T14:35:04;4.65;;;3.47;;
77324;SDS011;66387;53.440;10.390;2023-07-22T14:37:30;5.72;;;3.25;;